Emmonak, AK

5:42 AM AKDT on April 28, 2017 (GMT -0800)
Emmonak

Weather History for PAEM - February, 2013

Change the Weather History Date:

Wednesday, February 20, 2013

  Actual Average Record
Temperature  
Mean Temperature -6 °F -  
Max Temperature 0 °F 16 °F 35 °F (2015)
Min Temperature -16 °F 6 °F -16 °F (2013)
Degree Days  
Heating Degree Days 72    
Moisture  
Dew Point -14 °F    
Average Humidity 61    
Maximum Humidity 84    
Minimum Humidity 32    
Precipitation  
Precipitation 0.00 in - - ()
Sea Level Pressure  
Sea Level Pressure 29.34 in    
Wind  
Wind Speed 17 mph (NE)    
Max Wind Speed 28 mph    
Max Gust Speed 34 mph    
Visibility 10 miles    
Events      
Averages and records for this station are not official NWS values.
T = Trace of Precipitation, MM = Missing Value Source: NWS Daily Summary

Daily Weather History Graph

Daily Weather History Graph

Search for Another Location

Airport or City:

Trip Planner

Search our weather history database for the weather conditions in past years. The results will help you decide how hot, cold, wet, or windy it might be!

Date:

Astronomy

Feb. 20, 2013 Rise Set
Actual Time 9:29 AM AKST 6:54 PM AKST
Civil Twilight 8:42 AM AKST 7:42 PM AKST
Nautical Twilight 7:49 AM AKST 8:35 PM AKST
Astronomical Twilight 6:56 AM AKST 9:28 PM AKST
Moon 1:22 PM AKST (2/20) 7:05 AM AKST (2/20)
Length of Visible Light 10h 59m
Length of Day
9h 25m
Waxing Gibbous, 77% of the Moon is Illuminated
Feb 20
Waxing Gibbous
Feb 25
Full
Mar 4
Last Quarter
Mar 11
New
Mar 19
First Quarter

Hourly Weather History & Observations

Time (AKST) Temp. Windchill Dew Point Humidity Pressure Visibility Wind Dir Wind Speed Gust Speed Precip Events Conditions
12:16 AM -2.2 °F -26.2 °F -11.2 °F 66% 29.34 in 9.0 mi NNE 23.0 mph 31.1 mph N/A   Clear
12:36 AM -2.2 °F -28.0 °F -11.2 °F 66% 29.32 in 6.0 mi NNE 27.6 mph 34.5 mph N/A   Clear
12:56 AM -2.2 °F -28.0 °F -11.2 °F 66% 29.33 in 8.0 mi NE 27.6 mph 32.2 mph N/A   Clear
1:16 AM -2.2 °F -27.1 °F -13.0 °F 60% 29.32 in 9.0 mi NE 25.3 mph 31.1 mph N/A   Clear
1:36 AM -2.2 °F -25.7 °F -11.2 °F 66% 29.32 in 10.0 mi NE 21.9 mph 27.6 mph N/A   Clear
1:56 AM -2.2 °F -27.1 °F -11.2 °F 66% 29.30 in 8.0 mi NE 25.3 mph 33.4 mph N/A   Clear
2:16 AM -2.2 °F -25.7 °F -11.2 °F 66% 29.30 in 7.0 mi NE 21.9 mph 29.9 mph N/A   Clear
3:16 AM -0.4 °F -24.3 °F -13.0 °F 55% 29.28 in 7.0 mi NE 24.2 mph 32.2 mph N/A   Clear
3:36 AM -0.4 °F -24.3 °F -13.0 °F 55% 29.28 in 10.0 mi NE 24.2 mph 29.9 mph N/A   Clear
3:56 AM -0.4 °F -24.3 °F -14.8 °F 51% 29.28 in 10.0 mi NE 24.2 mph 27.6 mph N/A   Clear
4:16 AM -0.4 °F -23.8 °F -14.8 °F 51% 29.27 in 8.0 mi NE 23.0 mph 28.8 mph N/A   Clear
4:36 AM -0.4 °F -22.8 °F -18.4 °F 43% 29.27 in 10.0 mi NE 20.7 mph - N/A   Clear
4:56 AM -0.4 °F -22.8 °F -14.8 °F 51% 29.27 in 10.0 mi NE 20.7 mph 28.8 mph N/A   Clear
5:16 AM -0.4 °F -22.8 °F -23.8 °F 32% 29.27 in 10.0 mi NE 20.7 mph 25.3 mph N/A   Clear
5:36 AM -0.4 °F -23.3 °F -18.4 °F 43% 29.27 in 10.0 mi NE 21.9 mph 26.5 mph N/A   Clear
5:56 AM -0.4 °F -22.8 °F -11.2 °F 60% 29.27 in 10.0 mi NE 20.7 mph 26.5 mph N/A   Clear
6:16 AM -0.4 °F -22.3 °F -9.4 °F 66% 29.27 in 10.0 mi NE 19.6 mph 26.5 mph N/A   Clear
6:36 AM -0.4 °F -20.5 °F -7.6 °F 72% 29.27 in 10.0 mi NE 16.1 mph 21.9 mph N/A   Clear
6:56 AM -0.4 °F -23.3 °F -9.4 °F 66% 29.27 in 10.0 mi NE 21.9 mph 26.5 mph N/A   Clear
7:16 AM -0.4 °F -19.2 °F -9.4 °F 66% 29.29 in 10.0 mi NE 13.8 mph - N/A   Clear
7:36 AM -0.4 °F -19.9 °F -9.4 °F 66% 29.29 in 10.0 mi NE 15.0 mph - N/A   Clear
7:56 AM -0.4 °F -21.2 °F -11.2 °F 60% 29.28 in 10.0 mi NE 17.3 mph 24.2 mph N/A   Clear
8:16 AM -0.4 °F -20.5 °F -11.2 °F 60% 29.29 in 10.0 mi NE 16.1 mph - N/A   Clear
8:36 AM -0.4 °F -23.3 °F - N/A% 29.28 in 10.0 mi NE 21.9 mph 26.5 mph N/A   Clear
8:56 AM -0.4 °F -22.3 °F -11.2 °F 60% 29.29 in 10.0 mi NE 19.6 mph - N/A   Clear
9:16 AM -0.4 °F -20.5 °F -11.2 °F 60% 29.30 in 10.0 mi NE 16.1 mph 21.9 mph N/A   Clear
9:36 AM -2.2 °F -23.5 °F -11.2 °F 66% 29.30 in 10.0 mi NE 17.3 mph - N/A   Clear
9:56 AM -2.2 °F -22.9 °F -13.0 °F 60% 29.30 in 10.0 mi NE 16.1 mph - N/A   Clear
10:16 AM -2.2 °F -22.9 °F -11.2 °F 66% 29.30 in 10.0 mi NE 16.1 mph 20.7 mph N/A   Clear
10:36 AM -2.2 °F -22.9 °F -11.2 °F 66% 29.30 in 10.0 mi NE 16.1 mph - N/A   Clear
10:56 AM -2.2 °F -22.9 °F -13.0 °F 60% 29.30 in 10.0 mi NE 16.1 mph - N/A   Clear
11:16 AM -2.2 °F -22.2 °F -11.2 °F 66% 29.30 in 10.0 mi NE 15.0 mph - N/A   Clear
11:36 AM -2.2 °F -23.5 °F -13.0 °F 60% 29.30 in 10.0 mi NE 17.3 mph - N/A   Clear
11:56 AM -2.2 °F -22.2 °F -11.2 °F 66% 29.31 in 10.0 mi NE 15.0 mph - N/A   Clear
12:16 PM -2.2 °F -23.5 °F -11.2 °F 66% 29.32 in 10.0 mi NE 17.3 mph - N/A   Clear
12:36 PM -0.4 °F -19.9 °F - N/A% 29.32 in 10.0 mi NE 15.0 mph - N/A   Clear
12:56 PM -0.4 °F -19.9 °F -11.2 °F 60% 29.33 in 10.0 mi NE 15.0 mph - N/A   Clear
1:16 PM -0.4 °F -16.7 °F -11.2 °F 60% 29.34 in 10.0 mi NE 10.4 mph - N/A   Clear
1:36 PM -0.4 °F -15.7 °F -9.4 °F 66% 29.34 in 10.0 mi ENE 9.2 mph - N/A   Clear
1:56 PM -0.4 °F -12.0 °F -9.4 °F 66% 29.35 in 10.0 mi NE 5.8 mph - N/A   Clear
2:16 PM -0.4 °F -12.0 °F -9.4 °F 66% 29.36 in 10.0 mi ENE 5.8 mph - N/A   Clear
2:36 PM -0.4 °F -10.4 °F -11.2 °F 60% 29.36 in 10.0 mi NE 4.6 mph - N/A   Clear
2:56 PM -0.4 °F -10.4 °F -13.0 °F 55% 29.36 in 10.0 mi NE 4.6 mph - N/A   Clear
3:16 PM -0.4 °F - -13.0 °F 55% 29.36 in 10.0 mi Calm Calm - N/A   Clear
3:36 PM -0.4 °F - -11.2 °F 60% 29.37 in 10.0 mi Calm Calm - N/A   Clear
3:56 PM -2.2 °F - -11.2 °F 66% 29.37 in 10.0 mi Calm Calm - N/A   Clear
4:16 PM -2.2 °F -10.4 °F -11.2 °F 66% 29.37 in 10.0 mi North 3.5 mph - N/A   Clear
4:36 PM -0.4 °F - -11.2 °F 60% 29.37 in 10.0 mi Calm Calm - N/A   Clear
4:56 PM -0.4 °F -13.4 °F -9.4 °F 66% 29.37 in 10.0 mi NNE 6.9 mph - N/A   Clear
5:16 PM -2.2 °F -15.6 °F -11.2 °F 66% 29.37 in 10.0 mi NE 6.9 mph - N/A   Clear
5:36 PM -2.2 °F -15.6 °F -13.0 °F 60% 29.38 in 10.0 mi NE 6.9 mph - N/A   Clear
5:56 PM -2.2 °F -12.5 °F -16.6 °F 50% 29.38 in 10.0 mi ENE 4.6 mph - N/A   Clear
6:16 PM -4.0 °F -12.4 °F -14.8 °F 60% 29.38 in 10.0 mi East 3.5 mph - N/A   Clear
6:36 PM -2.2 °F -10.4 °F -14.8 °F 55% 29.39 in 10.0 mi East 3.5 mph - N/A   Clear
6:56 PM -2.2 °F -10.4 °F -13.0 °F 60% 29.38 in 10.0 mi ENE 3.5 mph - N/A   Clear
7:16 PM -2.2 °F - -14.8 °F 55% 29.39 in 10.0 mi Calm Calm - N/A   Clear
7:36 PM -4.0 °F - -11.2 °F 71% 29.38 in 10.0 mi Calm Calm - N/A   Clear
7:56 PM -4.0 °F -12.4 °F -14.8 °F 60% 29.38 in 10.0 mi NE 3.5 mph - N/A   Clear
8:16 PM -4.0 °F -14.6 °F -14.8 °F 60% 29.38 in 10.0 mi ENE 4.6 mph - N/A   Clear
8:36 PM -5.8 °F -14.5 °F -16.6 °F 60% 29.39 in 10.0 mi East 3.5 mph - N/A   Clear
8:56 PM -7.6 °F -22.1 °F -11.2 °F 84% 29.40 in 10.0 mi East 6.9 mph - N/A   Clear
9:16 PM -11.2 °F -27.8 °F -23.8 °F 54% 29.40 in 10.0 mi NE 8.1 mph - N/A   Clear
9:36 PM -11.2 °F -26.4 °F -23.8 °F 54% 29.41 in 10.0 mi East 6.9 mph - N/A   Clear
9:56 PM -13.0 °F -27.0 °F -20.2 °F 70% 29.41 in 10.0 mi ESE 5.8 mph - N/A   Clear
10:16 PM -11.2 °F -23.0 °F -16.6 °F 77% 29.41 in 10.0 mi East 4.6 mph - N/A   Clear
10:36 PM -11.2 °F -24.8 °F -18.4 °F 70% 29.41 in 10.0 mi East 5.8 mph - N/A   Clear
10:56 PM -11.2 °F -23.0 °F -20.2 °F 64% 29.41 in 10.0 mi East 4.6 mph - N/A   Clear
11:16 PM -11.2 °F -23.0 °F -23.8 °F 54% 29.41 in 10.0 mi East 4.6 mph - N/A   Clear
11:36 PM -13.0 °F -22.7 °F -20.2 °F 70% 29.42 in 10.0 mi ENE 3.5 mph - N/A   Clear
11:56 PM -16.6 °F -26.8 °F -23.8 °F 70% 29.42 in 10.0 mi East 3.5 mph - N/A   Clear